»·PEaware :: N582WD KPDX-KRNO

N582WD :: KPDX-KRNO

FLIGHT INFORMATION

Flight Status: Arrived
Operator: Privately registered:
United States
More flights under this callsign
Pilot: Andre N. (13929)
Aircraft: ECLIPSE 500
(EA50)
More flights by this aircraft type
Origin: KPDX Portland Intl
United States
Destination: KRNO Reno/Tahoe Intl
United States
More flights between these airports :: More routes between these airports
Route: CASCD2 PAWLI BAARB FMG
File this flight plan on PilotEdge
Remarks:
Altitude:
(Current/Filed)
31,000ft
Speed:
(Current/Filed)
270kts
Departed: 15-May-18 02:17 PM
Arrived: 15-May-18 03:50 PM
Distance/Time
Traveled:
386nm/1:33
Distance/Time
To Go:
Arrived

Flight Plot

Page will automatically refresh every two minutes.


Map Options




Map Legend


Flown Route
Filed Route
Departure Airport
Arrival Airport
Navaid (VOR, NDB)
Fix

Horizontal Profiles

Position Reports

Time Latitude Longitude Heading Altitude Ground
Speed
15-May-18 13:50 45.587158 -122.582321 209 32ft 0kts
15-May-18 13:51 45.587158 -122.582321 209 32ft 0kts
15-May-18 13:52 45.587158 -122.582321 209 32ft 0kts
15-May-18 13:53 45.587158 -122.582321 209 32ft 0kts
15-May-18 13:54 45.587158 -122.582321 209 32ft 0kts
15-May-18 13:55 45.587158 -122.582321 209 32ft 0kts
15-May-18 13:56 45.587158 -122.582321 209 32ft 0kts
15-May-18 13:57 45.587158 -122.582321 209 32ft 0kts
15-May-18 13:58 45.587158 -122.582321 209 32ft 0kts
15-May-18 13:59 45.587158 -122.582321 209 32ft 0kts
15-May-18 14:00 45.587158 -122.582321 209 32ft 0kts
15-May-18 14:01 45.587158 -122.582321 209 32ft 0kts
15-May-18 14:02 45.587158 -122.582321 209 32ft 0kts
15-May-18 14:03 45.587158 -122.582321 209 32ft 0kts
15-May-18 14:04 45.587158 -122.582321 209 32ft 0kts
15-May-18 14:05 45.587158 -122.582321 209 32ft 0kts
15-May-18 14:06 45.587158 -122.582321 209 32ft 0kts
15-May-18 14:07 45.587158 -122.582321 209 32ft 0kts
15-May-18 14:08 45.587158 -122.582321 209 32ft 0kts
15-May-18 14:09 45.587158 -122.582321 209 32ft 0kts
15-May-18 14:10 45.587158 -122.582321 209 32ft 0kts
15-May-18 14:11 45.587056 -122.582264 117 32ft 4kts
15-May-18 14:12 45.586197 -122.578838 78 32ft 7kts
15-May-18 14:13 45.585431 -122.574761 121 32ft 17kts
15-May-18 14:14 45.583676 -122.570287 119 32ft 14kts
15-May-18 14:15 45.582731 -122.567361 63 32ft 0kts
15-May-18 14:16 45.583537 -122.567048 325 32ft 13kts
15-May-18 14:17 45.593000 -122.593067 297 489ft 144kts
15-May-18 14:18 45.613966 -122.651513 297 2645ft 173kts
15-May-18 14:19 45.630297 -122.695715 297 4403ft 181kts
15-May-18 14:20 45.652610 -122.755066 299 6605ft 187kts
15-May-18 14:21 45.669766 -122.822604 255 8762ft 194kts
15-May-18 14:22 45.655080 -122.897669 254 10763ft 201kts
15-May-18 14:23 45.610150 -122.916028 166 12522ft 206kts
15-May-18 14:24 45.554366 -122.896086 163 14213ft 213kts
15-May-18 14:25 45.510734 -122.841247 132 15773ft 216kts
15-May-18 14:26 45.470207 -122.780157 131 17208ft 220kts
15-May-18 14:27 45.429729 -122.717988 130 18523ft 224kts
15-May-18 14:28 45.387903 -122.653341 130 19765ft 228kts
15-May-18 14:29 45.344968 -122.586908 130 20928ft 231kts
15-May-18 14:30 45.301535 -122.519772 130 21999ft 234kts
15-May-18 14:31 45.257721 -122.452184 129 22982ft 237kts
15-May-18 14:32 45.213073 -122.383462 129 23897ft 240kts
15-May-18 14:33 45.172096 -122.320547 130 24669ft 242kts
15-May-18 14:34 45.126853 -122.251240 130 25460ft 244kts
15-May-18 14:35 45.080977 -122.181202 130 26227ft 245kts
15-May-18 14:36 45.024695 -122.128985 149 26919ft 251kts
15-May-18 14:37 44.962068 -122.085946 148 27555ft 253kts
15-May-18 14:38 44.899471 -122.043617 148 28126ft 255kts
15-May-18 14:39 44.840214 -122.003894 148 28625ft 256kts
15-May-18 14:40 44.775817 -121.960942 148 29104ft 259kts
15-May-18 14:41 44.710911 -121.917785 148 29539ft 261kts
15-May-18 14:42 44.645451 -121.874397 148 29931ft 263kts
15-May-18 14:43 44.579462 -121.830771 148 30295ft 264kts
15-May-18 14:44 44.513495 -121.787259 148 30639ft 265kts
15-May-18 14:45 44.446937 -121.743481 148 30953ft 266kts
15-May-18 14:46 44.379394 -121.699142 148 31021ft 275kts
15-May-18 14:47 44.309795 -121.653588 148 31025ft 282kts
15-May-18 14:48 44.238531 -121.607082 148 31024ft 287kts
15-May-18 14:49 44.166616 -121.560283 148 31025ft 289kts
15-May-18 14:50 44.093903 -121.513071 148 31026ft 291kts
15-May-18 14:51 44.021042 -121.465911 148 31022ft 291kts
15-May-18 14:52 43.948074 -121.418804 148 31023ft 292kts
15-May-18 14:53 43.880798 -121.375484 148 31024ft 292kts
15-May-18 14:54 43.816395 -121.334124 149 31029ft 292kts
15-May-18 14:55 43.743009 -121.287094 149 31029ft 293kts
15-May-18 14:56 43.669334 -121.240021 149 31029ft 294kts
15-May-18 14:57 43.595679 -121.193095 149 31028ft 294kts
15-May-18 14:58 43.521839 -121.146182 149 31028ft 294kts
15-May-18 14:59 43.446744 -121.098561 149 31028ft 304kts
15-May-18 15:00 43.369788 -121.049936 149 31028ft 308kts
15-May-18 15:01 43.291688 -121.000715 149 31027ft 310kts
15-May-18 15:02 43.213648 -120.951671 149 31027ft 312kts
15-May-18 15:03 43.131906 -120.911060 155 31052ft 316kts
15-May-18 15:04 43.048045 -120.875712 156 31090ft 316kts
15-May-18 15:05 42.963952 -120.840612 156 31072ft 320kts
15-May-18 15:06 42.882812 -120.806899 158 31073ft 325kts
15-May-18 15:07 42.798449 -120.772137 158 31071ft 330kts
15-May-18 15:08 42.710779 -120.736090 158 31071ft 333kts
15-May-18 15:09 42.622408 -120.699811 158 31070ft 334kts
15-May-18 15:10 42.533782 -120.663550 158 31071ft 335kts
15-May-18 15:11 42.444858 -120.627257 158 31071ft 336kts
15-May-18 15:12 42.356332 -120.591247 158 31072ft 336kts
15-May-18 15:13 42.267510 -120.555202 158 31071ft 336kts
15-May-18 15:14 42.180217 -120.519454 163 31053ft 337kts
15-May-18 15:15 42.098274 -120.486855 162 31052ft 344kts
15-May-18 15:16 42.005526 -120.449868 158 31051ft 350kts
15-May-18 15:17 41.914018 -120.412873 158 31045ft 340kts
15-May-18 15:18 41.843450 -120.384539 159 31045ft 329kts
15-May-18 15:19 41.757928 -120.350491 159 31020ft 320kts
15-May-18 15:20 41.675168 -120.317582 160 31024ft 315kts
15-May-18 15:21 41.591549 -120.284402 160 31023ft 313kts
15-May-18 15:22 41.508505 -120.251546 160 31022ft 311kts
15-May-18 15:23 41.425940 -120.218964 160 31022ft 310kts
15-May-18 15:24 41.343730 -120.186606 160 31021ft 309kts
15-May-18 15:25 41.261736 -120.154410 160 31021ft 308kts
15-May-18 15:26 41.179816 -120.122342 161 31020ft 307kts
15-May-18 15:27 41.097757 -120.096769 164 31019ft 308kts
15-May-18 15:28 41.014595 -120.072593 164 31019ft 307kts
15-May-18 15:29 40.931417 -120.048673 165 31018ft 307kts
15-May-18 15:30 40.864133 -120.029413 165 31024ft 307kts
15-May-18 15:31 40.785786 -120.007032 165 30849ft 308kts
15-May-18 15:32 40.700612 -119.982760 165 29369ft 320kts
15-May-18 15:33 40.613415 -119.957976 166 27738ft 328kts
15-May-18 15:34 40.523923 -119.935989 183 25926ft 336kts
15-May-18 15:35 40.443039 -119.991199 175 24069ft 335kts
15-May-18 15:36 40.360678 -119.941596 160 22231ft 332kts
15-May-18 15:37 40.274788 -119.899206 157 20426ft 332kts
15-May-18 15:38 40.190293 -119.851347 156 18616ft 332kts
15-May-18 15:39 40.106110 -119.803402 156 16811ft 332kts
15-May-18 15:40 40.021934 -119.768542 190 16028ft 311kts
15-May-18 15:41 39.942916 -119.786284 153 16037ft 292kts
15-May-18 15:42 39.878488 -119.765959 173 16034ft 230kts
15-May-18 15:43 39.822593 -119.753468 173 14246ft 212kts
15-May-18 15:44 39.765783 -119.749609 183 12147ft 204kts
15-May-18 15:45 39.709579 -119.756647 188 10193ft 199kts
15-May-18 15:46 39.656863 -119.764080 184 8489ft 188kts
15-May-18 15:47 39.605943 -119.764165 181 6990ft 171kts
15-May-18 15:48 39.558593 -119.766564 183 5557ft 163kts
15-May-18 15:49 39.516310 -119.766690 183 4524ft 140kts
15-May-18 15:50 39.491207 -119.766771 179 4412ft 36kts
15-May-18 15:51 39.489491 -119.765297 22 4412ft 0kts
15-May-18 15:52 39.493881 -119.765219 2 4412ft 14kts
15-May-18 15:53 39.499155 -119.765238 359 4412ft 19kts
15-May-18 15:54 39.500908 -119.764979 359 4412ft 0kts
15-May-18 15:55 39.500908 -119.764979 359 4412ft 0kts
15-May-18 15:56 39.500908 -119.764979 359 4412ft 0kts

Navigation Log

Ident Type
1. KPDX Airport
2. CHISM Fix
3. PAWLI Fix
4. BAARB Fix
5. FMG Navaid
6. KRNO Airport